Time;durP1;ratioP1;P1;durP2;ratioP2;P2;SDS_P1;SDS_P2;PMS_P1;PMS_P2;Temp;Humidity;BMP_temperature;BMP_pressure;BME280_temperature;BME280_humidity;BME280_pressure;Samples;Min_cycle;Max_cycle;Signal;HPM_P1;HPM_P2
2023/05/01 00:00:31;;;;;;;;;;;;;;;11.23;61.17188;101942.1;;;;-71
2023/05/01 00:05:31;;;;;;;;;;;;;;;11.12;61.60352;101937.7;;;;-70
2023/05/01 00:10:32;;;;;;;;;;;;;;;11.05;61.88281;101937.1;;;;-69
2023/05/01 00:15:31;;;;;;;;;;;;;;;11.05;61.51563;101933.1;;;;-70
2023/05/01 00:20:33;;;;;;;;;;;;;;;10.99;61.53027;101931;;;;-68
2023/05/01 00:25:32;;;;;;;;;;;;;;;10.93;61.86523;101927.4;;;;-69
2023/05/01 00:27:06;;;;;;;2.3;1.2;;;;;;;;;;;;;-68
2023/05/01 00:30:31;;;;;;;;;;;;;;;10.85;61.50977;101918.2;;;;-69
2023/05/01 00:35:34;;;;;;;;;;;;;;;10.81;61.44727;101913.1;;;;-69
2023/05/01 00:40:34;;;;;;;;;;;;;;;10.73;61.46973;101906.6;;;;-70
2023/05/01 00:45:31;;;;;;;;;;;;;;;10.73;61.74805;101904.6;;;;-70
2023/05/01 00:50:32;;;;;;;;;;;;;;;10.62;61.78809;101898.9;;;;-69
2023/05/01 00:55:31;;;;;;;;;;;;;;;10.55;61.58984;101890.9;;;;-69
2023/05/01 00:57:06;;;;;;;2.7;1.2;;;;;;;;;;;;;-69
2023/05/01 01:00:31;;;;;;;;;;;;;;;10.47;61.74414;101885.3;;;;-69
2023/05/01 01:05:33;;;;;;;;;;;;;;;10.42;62.02832;101881.3;;;;-69
2023/05/01 01:10:36;;;;;;;;;;;;;;;10.34;61.99414;101877.6;;;;-69
2023/05/01 01:15:34;;;;;;;;;;;;;;;10.31;62.40137;101870.6;;;;-69
2023/05/01 01:20:43;;;;;;;;;;;;;;;10.23;62.10059;101856.4;;;;-68
2023/05/01 01:25:49;;;;;;;;;;;;;;;10.18;62.04883;101846.8;;;;-69
2023/05/01 01:27:18;;;;;;;2.7;1.3;;;;;;;;;;;;;-69
2023/05/01 01:30:49;;;;;;;;;;;;;;;10.15;61.77637;101842.6;;;;-68
2023/05/01 01:35:35;;;;;;;;;;;;;;;10.14;61.8877;101832.1;;;;-69
2023/05/01 01:40:34;;;;;;;;;;;;;;;10.07;62.00977;101825;;;;-69
2023/05/01 01:45:34;;;;;;;;;;;;;;;10;62.10059;101816.9;;;;-69
2023/05/01 01:50:32;;;;;;;;;;;;;;;10.01;61.8252;101807;;;;-68
2023/05/01 01:55:33;;;;;;;;;;;;;;;9.94;62.28125;101797.1;;;;-70
2023/05/01 01:57:12;;;;;;;3.5;1.4;;;;;;;;;;;;;-70
2023/05/01 02:00:33;;;;;;;;;;;;;;;9.92;62.10156;101794.1;;;;-71
2023/05/01 02:05:31;;;;;;;;;;;;;;;9.9;62.00879;101791;;;;-70
2023/05/01 02:10:32;;;;;;;;;;;;;;;9.88;61.87207;101784.5;;;;-69
2023/05/01 02:15:33;;;;;;;;;;;;;;;9.83;62.19824;101778.7;;;;-70
2023/05/01 02:20:34;;;;;;;;;;;;;;;9.77;62.29004;101771.8;;;;-69
2023/05/01 02:25:34;;;;;;;;;;;;;;;9.76;62.06641;101766.8;;;;-70
2023/05/01 02:27:12;;;;;;;3.4;1.4;;;;;;;;;;;;;-69
2023/05/01 02:30:31;;;;;;;;;;;;;;;9.75;61.9873;101760.1;;;;-69
2023/05/01 02:35:31;;;;;;;;;;;;;;;9.7;62.2793;101754.6;;;;-69
2023/05/01 02:40:32;;;;;;;;;;;;;;;9.66;62.00781;101749;;;;-68
2023/05/01 02:45:32;;;;;;;;;;;;;;;9.64;61.9707;101744.3;;;;-69
2023/05/01 02:50:33;;;;;;;;;;;;;;;9.6;62.00977;101739.1;;;;-69
2023/05/01 02:55:31;;;;;;;;;;;;;;;9.56;61.82715;101727.6;;;;-69
2023/05/01 02:57:10;;;;;;;2.6;1.3;;;;;;;;;;;;;-69
2023/05/01 03:00:31;;;;;;;;;;;;;;;9.47;61.94824;101722;;;;-69
2023/05/01 03:05:34;;;;;;;;;;;;;;;9.44;62.06445;101720;;;;-69
2023/05/01 03:10:31;;;;;;;;;;;;;;;9.39;62.10352;101715.1;;;;-70
2023/05/01 03:15:31;;;;;;;;;;;;;;;9.34;61.99609;101711.1;;;;-69
2023/05/01 03:20:31;;;;;;;;;;;;;;;9.3;62.17969;101710;;;;-69
2023/05/01 03:25:31;;;;;;;;;;;;;;;9.23;62.17969;101705;;;;-70
2023/05/01 03:27:20;;;;;;;3.3;1.5;;;;;;;;;;;;;-69
2023/05/01 03:30:31;;;;;;;;;;;;;;;9.2;62.15234;101705.2;;;;-68
2023/05/01 03:35:31;;;;;;;;;;;;;;;9.1;62.05078;101702;;;;-69
2023/05/01 03:40:34;;;;;;;;;;;;;;;9.02;62.23926;101696.9;;;;-69
2023/05/01 03:45:31;;;;;;;;;;;;;;;8.99;62.2998;101684.8;;;;-70
2023/05/01 03:50:31;;;;;;;;;;;;;;;8.91;62.26563;101684.2;;;;-69
2023/05/01 03:55:31;;;;;;;;;;;;;;;8.82;62.26563;101681.5;;;;-69
2023/05/01 03:57:13;;;;;;;2.7;1.5;;;;;;;;;;;;;-71
2023/05/01 04:00:31;;;;;;;;;;;;;;;8.83;62.11133;101678.1;;;;-69
2023/05/01 04:05:32;;;;;;;;;;;;;;;8.73;62.14063;101673.4;;;;-70
2023/05/01 04:10:33;;;;;;;;;;;;;;;8.67;62.44238;101676.4;;;;-70
2023/05/01 04:15:31;;;;;;;;;;;;;;;8.6;62.62207;101681.5;;;;-69
2023/05/01 04:20:31;;;;;;;;;;;;;;;8.56;62.60449;101683.7;;;;-69
2023/05/01 04:25:32;;;;;;;;;;;;;;;8.5;62.44141;101682.5;;;;-69
2023/05/01 04:27:13;;;;;;;3.2;1.4;;;;;;;;;;;;;-69
2023/05/01 04:30:32;;;;;;;;;;;;;;;8.42;62.57324;101680.3;;;;-69
2023/05/01 04:35:31;;;;;;;;;;;;;;;8.38;62.87793;101674.3;;;;-70
2023/05/01 04:40:31;;;;;;;;;;;;;;;8.38;62.70117;101675.1;;;;-69
2023/05/01 04:45:31;;;;;;;;;;;;;;;8.36;62.64258;101682.4;;;;-69
2023/05/01 04:50:31;;;;;;;;;;;;;;;8.38;62.63477;101671;;;;-68
2023/05/01 04:55:33;;;;;;;;;;;;;;;8.41;62.56055;101673;;;;-69
2023/05/01 04:57:15;;;;;;;3.9;1.5;;;;;;;;;;;;;-71
2023/05/01 05:00:34;;;;;;;;;;;;;;;8.39;62.50195;101674.9;;;;-70
2023/05/01 05:05:31;;;;;;;;;;;;;;;8.45;62.33398;101664;;;;-69
2023/05/01 05:10:31;;;;;;;;;;;;;;;8.44;62.35449;101662.8;;;;-69
2023/05/01 05:15:31;;;;;;;;;;;;;;;8.47;62.33789;101664.6;;;;-69
2023/05/01 05:20:31;;;;;;;;;;;;;;;8.58;62.18555;101666.6;;;;-69
2023/05/01 05:25:31;;;;;;;;;;;;;;;8.65;61.91016;101668.4;;;;-69
2023/05/01 05:27:15;;;;;;;3;1.3;;;;;;;;;;;;;-69
2023/05/01 05:30:31;;;;;;;;;;;;;;;8.72;61.87402;101666.6;;;;-69
2023/05/01 05:35:31;;;;;;;;;;;;;;;8.84;61.64746;101657.5;;;;-69
2023/05/01 05:40:31;;;;;;;;;;;;;;;9.01;61.82617;101654.1;;;;-69
2023/05/01 05:45:31;;;;;;;;;;;;;;;9.26;61.62891;101651.6;;;;-69
2023/05/01 05:50:31;;;;;;;;;;;;;;;9.72;61.13965;101650.3;;;;-69
2023/05/01 05:55:31;;;;;;;;;;;;;;;10.03;60.23828;101643.5;;;;-69
2023/05/01 05:57:16;;;;;;;3.3;1.7;;;;;;;;;;;;;-68
2023/05/01 06:00:31;;;;;;;;;;;;;;;10.29;60.0625;101644.2;;;;-69
2023/05/01 06:05:31;;;;;;;;;;;;;;;10.72;59.92188;101637.1;;;;-70
2023/05/01 06:10:31;;;;;;;;;;;;;;;11.14;58.55273;101636.9;;;;-69
2023/05/01 06:15:33;;;;;;;;;;;;;;;11.53;58.28027;101632.6;;;;-70
2023/05/01 06:20:32;;;;;;;;;;;;;;;11.71;58.25977;101627.4;;;;-69
2023/05/01 06:25:31;;;;;;;;;;;;;;;11.71;58.3584;101632.4;;;;-69
2023/05/01 06:27:18;;;;;;;3.4;1.6;;;;;;;;;;;;;-70
2023/05/01 06:30:31;;;;;;;;;;;;;;;11.7;58.6377;101626.5;;;;-68
2023/05/01 06:35:31;;;;;;;;;;;;;;;11.71;58.7832;101629.3;;;;-68
2023/05/01 06:40:33;;;;;;;;;;;;;;;11.75;58.7793;101632.1;;;;-69
2023/05/01 06:45:32;;;;;;;;;;;;;;;11.78;59.0957;101633.4;;;;-70
2023/05/01 06:50:31;;;;;;;;;;;;;;;11.83;59.19141;101630.5;;;;-68
2023/05/01 06:55:32;;;;;;;;;;;;;;;11.92;58.95801;101633.9;;;;-68
2023/05/01 06:57:19;;;;;;;4.8;2;;;;;;;;;;;;;-69
2023/05/01 07:00:34;;;;;;;;;;;;;;;11.99;58.92285;101632.6;;;;-69
2023/05/01 07:05:31;;;;;;;;;;;;;;;12.03;59.05078;101632.4;;;;-69
2023/05/01 07:10:33;;;;;;;;;;;;;;;12.06;59.04297;101631.7;;;;-69
2023/05/01 07:15:33;;;;;;;;;;;;;;;12.1;59.04883;101626.3;;;;-68
2023/05/01 07:20:31;;;;;;;;;;;;;;;12.17;59.09277;101631;;;;-69
2023/05/01 07:25:32;;;;;;;;;;;;;;;12.22;59.08887;101617.5;;;;-68
2023/05/01 07:27:25;;;;;;;3.9;1.9;;;;;;;;;;;;;-68
2023/05/01 07:30:32;;;;;;;;;;;;;;;12.3;58.93066;101616.2;;;;-68
2023/05/01 07:35:31;;;;;;;;;;;;;;;12.42;58.87012;101621.2;;;;-69
2023/05/01 07:40:31;;;;;;;;;;;;;;;12.55;58.7959;101620.7;;;;-69
2023/05/01 07:45:31;;;;;;;;;;;;;;;12.69;58.44824;101619.8;;;;-68
2023/05/01 07:50:31;;;;;;;;;;;;;;;12.79;58.34668;101619.5;;;;-69
2023/05/01 07:55:31;;;;;;;;;;;;;;;12.89;58.42871;101624.5;;;;-70
2023/05/01 07:57:23;;;;;;;3.6;1.7;;;;;;;;;;;;;-69
2023/05/01 08:00:31;;;;;;;;;;;;;;;13.03;58.27832;101622;;;;-69
2023/05/01 08:05:34;;;;;;;;;;;;;;;13.17;58.12988;101624.1;;;;-70
2023/05/01 08:10:31;;;;;;;;;;;;;;;13.31;57.93457;101626.6;;;;-68
2023/05/01 08:15:31;;;;;;;;;;;;;;;13.44;57.7959;101624.4;;;;-70
2023/05/01 08:20:31;;;;;;;;;;;;;;;13.61;57.74902;101622.9;;;;-68
2023/05/01 08:25:31;;;;;;;;;;;;;;;13.8;57.24707;101620.1;;;;-69
2023/05/01 08:27:24;;;;;;;3.7;1.9;;;;;;;;;;;;;-69
2023/05/01 08:30:31;;;;;;;;;;;;;;;13.99;57.02539;101616.3;;;;-69
2023/05/01 08:35:31;;;;;;;;;;;;;;;14.22;56.77441;101623;;;;-69
2023/05/01 08:40:34;;;;;;;;;;;;;;;14.43;56.54199;101623.5;;;;-70
2023/05/01 08:45:34;;;;;;;;;;;;;;;14.62;56.32031;101627.2;;;;-69
2023/05/01 08:50:31;;;;;;;;;;;;;;;14.78;56.12695;101632.9;;;;-69
2023/05/01 08:55:33;;;;;;;;;;;;;;;14.97;56.01563;101631;;;;-69
2023/05/01 08:57:26;;;;;;;4.4;2;;;;;;;;;;;;;-69
2023/05/01 09:00:33;;;;;;;;;;;;;;;15.14;55.9248;101623.8;;;;-69
2023/05/01 09:05:35;;;;;;;;;;;;;;;15.28;55.69434;101617.2;;;;-72
2023/05/01 09:10:32;;;;;;;;;;;;;;;15.45;55.52441;101624.3;;;;-70
2023/05/01 09:15:32;;;;;;;;;;;;;;;15.6;55.3291;101629.7;;;;-70
2023/05/01 09:20:31;;;;;;;;;;;;;;;15.74;55.2793;101633.3;;;;-71
2023/05/01 09:25:33;;;;;;;;;;;;;;;15.95;55.50977;101637.9;;;;-72
2023/05/01 09:27:28;;;;;;;4.8;2.2;;;;;;;;;;;;;-72
2023/05/01 09:30:39;;;;;;;;;;;;;;;16.17;55.42383;101642.3;;;;-73
2023/05/01 09:35:35;;;;;;;;;;;;;;;16.36;55.84277;101643.7;;;;-73
2023/05/01 09:40:33;;;;;;;;;;;;;;;16.64;55.22266;101636.6;;;;-74
2023/05/01 09:45:31;;;;;;;;;;;;;;;17.01;54.86035;101648.7;;;;-72
2023/05/01 09:50:38;;;;;;;;;;;;;;;17.33;54.32324;101650.7;;;;-72
2023/05/01 09:55:31;;;;;;;;;;;;;;;17.6;53.95996;101654.8;;;;-72
2023/05/01 09:57:41;;;;;;;6.6;2.6;;;;;;;;;;;;;-72
2023/05/01 10:00:32;;;;;;;;;;;;;;;17.75;54.0791;101654.6;;;;-72
2023/05/01 10:05:41;;;;;;;;;;;;;;;17.86;53.60547;101659;;;;-71
2023/05/01 10:10:31;;;;;;;;;;;;;;;17.99;53.68848;101661.3;;;;-73
2023/05/01 10:15:38;;;;;;;;;;;;;;;18.07;53.43848;101662.4;;;;-71
2023/05/01 10:20:34;;;;;;;;;;;;;;;18.21;53.30762;101666.9;;;;-73
2023/05/01 10:25:32;;;;;;;;;;;;;;;18.39;53.5918;101667.2;;;;-73
2023/05/01 10:27:33;;;;;;;5.7;2.7;;;;;;;;;;;;;-72
2023/05/01 10:30:31;;;;;;;;;;;;;;;18.63;53.49414;101667;;;;-73
2023/05/01 10:35:34;;;;;;;;;;;;;;;18.82;53.36914;101673.2;;;;-72
2023/05/01 10:40:42;;;;;;;;;;;;;;;18.9;52.95801;101672.4;;;;-71
2023/05/01 10:45:35;;;;;;;;;;;;;;;18.94;52.37109;101676.2;;;;-71
2023/05/01 10:50:31;;;;;;;;;;;;;;;18.98;51.89941;101682.3;;;;-72
2023/05/01 10:55:42;;;;;;;;;;;;;;;18.98;51.99023;101681.5;;;;-70
2023/05/01 10:57:47;;;;;;;5.2;2.8;;;;;;;;;;;;;-71
2023/05/01 11:00:32;;;;;;;;;;;;;;;18.99;52.39941;101678.6;;;;-71
2023/05/01 11:05:43;;;;;;;;;;;;;;;19.04;52.36035;101681.2;;;;-72
2023/05/01 11:10:36;;;;;;;;;;;;;;;19.05;52.27148;101676.4;;;;-71
2023/05/01 11:15:35;;;;;;;;;;;;;;;18.99;52.00293;101678.5;;;;-70
2023/05/01 11:20:43;;;;;;;;;;;;;;;18.9;52.25293;101685.1;;;;-71
2023/05/01 11:25:35;;;;;;;;;;;;;;;18.8;52.55957;101679.4;;;;-71
2023/05/01 11:27:38;;;;;;;5.6;3.1;;;;;;;;;;;;;-72
2023/05/01 11:30:39;;;;;;;;;;;;;;;18.68;52.75098;101679.6;;;;-73
2023/05/01 11:35:31;;;;;;;;;;;;;;;18.61;52.78711;101683.8;;;;-73
2023/05/01 11:40:32;;;;;;;;;;;;;;;18.56;53.09863;101682.4;;;;-72
2023/05/01 11:45:31;;;;;;;;;;;;;;;18.53;53.19824;101682.3;;;;-72
2023/05/01 11:50:38;;;;;;;;;;;;;;;18.46;53.30371;101676.5;;;;-71
2023/05/01 11:55:39;;;;;;;;;;;;;;;18.34;53.39063;101671.7;;;;-71
2023/05/01 11:57:51;;;;;;;6.1;3.5;;;;;;;;;;;;;-71
2023/05/01 12:00:38;;;;;;;;;;;;;;;18.22;53.72852;101675.7;;;;-71
2023/05/01 12:05:33;;;;;;;;;;;;;;;18.1;54.08887;101674.3;;;;-72
2023/05/01 12:10:31;;;;;;;;;;;;;;;17.94;54.77246;101675.3;;;;-71
2023/05/01 12:15:31;;;;;;;;;;;;;;;17.81;55.31152;101680;;;;-72
2023/05/01 12:20:42;;;;;;;;;;;;;;;17.7;55.46777;101682.1;;;;-71
2023/05/01 12:25:36;;;;;;;;;;;;;;;17.59;56.13184;101680.2;;;;-72
2023/05/01 12:27:49;;;;;;;7.1;4.2;;;;;;;;;;;;;-72
2023/05/01 12:30:32;;;;;;;;;;;;;;;17.47;56.74121;101679.3;;;;-72
2023/05/01 12:35:35;;;;;;;;;;;;;;;17.38;57.0127;101675.9;;;;-73
2023/05/01 12:40:31;;;;;;;;;;;;;;;17.31;57.29688;101679;;;;-72
2023/05/01 12:45:32;;;;;;;;;;;;;;;17.27;57.23633;101675.9;;;;-71
2023/05/01 12:50:31;;;;;;;;;;;;;;;17.18;57.9375;101676.5;;;;-73
2023/05/01 12:55:33;;;;;;;;;;;;;;;17.08;58.29688;101674.6;;;;-72
2023/05/01 12:57:59;;;;;;;6.6;3.8;;;;;;;;;;;;;-71
2023/05/01 13:00:31;;;;;;;;;;;;;;;16.98;59.21094;101670.5;;;;-73
2023/05/01 13:05:31;;;;;;;;;;;;;;;16.92;59.41602;101673;;;;-72
2023/05/01 13:10:37;;;;;;;;;;;;;;;16.87;59.43262;101675.3;;;;-72
2023/05/01 13:15:31;;;;;;;;;;;;;;;16.85;59.31738;101675.6;;;;-71
2023/05/01 13:20:31;;;;;;;;;;;;;;;16.85;58.95703;101675.7;;;;-72
2023/05/01 13:25:35;;;;;;;;;;;;;;;16.92;58.97656;101675.4;;;;-71
2023/05/01 13:27:54;;;;;;;6.6;4.1;;;;;;;;;;;;;-73
2023/05/01 13:30:39;;;;;;;;;;;;;;;17.05;59.25391;101669.2;;;;-73
2023/05/01 13:35:31;;;;;;;;;;;;;;;17.23;60.0918;101672.3;;;;-72
2023/05/01 13:40:31;;;;;;;;;;;;;;;17.46;59.76074;101674;;;;-74
2023/05/01 13:45:34;;;;;;;;;;;;;;;17.74;58.89355;101678.9;;;;-71
2023/05/01 13:50:31;;;;;;;;;;;;;;;18.02;57.92188;101674.3;;;;-72
2023/05/01 13:55:31;;;;;;;;;;;;;;;18.39;57.40332;101675.5;;;;-72
2023/05/01 13:57:52;;;;;;;7.4;4.4;;;;;;;;;;;;;-70
2023/05/01 14:00:33;;;;;;;;;;;;;;;18.76;56.29199;101674.3;;;;-72
2023/05/01 14:05:31;;;;;;;;;;;;;;;19.19;55.62012;101665.5;;;;-71
2023/05/01 14:10:32;;;;;;;;;;;;;;;19.59;54.55469;101668.1;;;;-66
2023/05/01 14:15:31;;;;;;;;;;;;;;;19.92;54.02637;101664;;;;-71
2023/05/01 14:20:32;;;;;;;;;;;;;;;20.24;54.38477;101664.2;;;;-72
2023/05/01 14:25:33;;;;;;;;;;;;;;;20.14;54.69141;101668.6;;;;-70
2023/05/01 14:27:56;;;;;;;9;4.5;;;;;;;;;;;;;-72
2023/05/01 14:30:32;;;;;;;;;;;;;;;19.86;54.71387;101666.4;;;;-71
2023/05/01 14:35:31;;;;;;;;;;;;;;;19.81;55.03711;101672.5;;;;-72
2023/05/01 14:40:33;;;;;;;;;;;;;;;19.87;55.67188;101674.3;;;;-72
2023/05/01 14:45:31;;;;;;;;;;;;;;;20.12;55.89551;101675.3;;;;-71
2023/05/01 14:50:31;;;;;;;;;;;;;;;20.3;56.2373;101681.2;;;;-73
2023/05/01 14:55:33;;;;;;;;;;;;;;;20.38;56.78418;101683.6;;;;-71
2023/05/01 14:57:58;;;;;;;10.9;5.7;;;;;;;;;;;;;-71
2023/05/01 15:00:31;;;;;;;;;;;;;;;20.49;56.85449;101686.7;;;;-72
2023/05/01 15:05:32;;;;;;;;;;;;;;;20.63;56.08594;101691.1;;;;-71
2023/05/01 15:10:31;;;;;;;;;;;;;;;20.46;54.63867;101702;;;;-73
2023/05/01 15:15:31;;;;;;;;;;;;;;;20.07;55.76367;101704.7;;;;-71
2023/05/01 15:20:31;;;;;;;;;;;;;;;19.72;55.55078;101714.1;;;;-74
2023/05/01 15:25:31;;;;;;;;;;;;;;;19.45;56.13086;101716.4;;;;-71
2023/05/01 15:28:02;;;;;;;9.6;5.8;;;;;;;;;;;;;-72
2023/05/01 15:30:31;;;;;;;;;;;;;;;19.24;56.38867;101712.6;;;;-72
2023/05/01 15:35:31;;;;;;;;;;;;;;;19.18;56.00488;101715.3;;;;-72
2023/05/01 15:40:31;;;;;;;;;;;;;;;19.13;56.29395;101722.1;;;;-71
2023/05/01 15:45:34;;;;;;;;;;;;;;;19.09;56.28809;101727.5;;;;-72
2023/05/01 15:50:31;;;;;;;;;;;;;;;19;56.61914;101727.5;;;;-72
2023/05/01 15:55:31;;;;;;;;;;;;;;;18.84;56.66602;101727.7;;;;-72
2023/05/01 15:58:05;;;;;;;13.8;8.4;;;;;;;;;;;;;-72
2023/05/01 16:00:31;;;;;;;;;;;;;;;18.78;56.78418;101736;;;;-72
2023/05/01 16:05:31;;;;;;;;;;;;;;;18.63;56.95703;101739.7;;;;-73
2023/05/01 16:10:35;;;;;;;;;;;;;;;18.55;57.70703;101740.2;;;;-69
2023/05/01 16:15:33;;;;;;;;;;;;;;;18.51;57.48633;101738.6;;;;-69
2023/05/01 16:20:33;;;;;;;;;;;;;;;18.48;57.87988;101737.4;;;;-68
2023/05/01 16:25:31;;;;;;;;;;;;;;;18.4;58.04004;101734.5;;;;-70
2023/05/01 16:28:09;;;;;;;16.9;10.4;;;;;;;;;;;;;-69
2023/05/01 16:30:31;;;;;;;;;;;;;;;18.46;58.25195;101736.2;;;;-71
2023/05/01 16:35:35;;;;;;;;;;;;;;;18.53;58.06738;101740.7;;;;-69
2023/05/01 16:40:31;;;;;;;;;;;;;;;18.51;58.07617;101747.1;;;;-69
2023/05/01 16:45:31;;;;;;;;;;;;;;;18.49;57.9834;101751.9;;;;-69
2023/05/01 16:50:32;;;;;;;;;;;;;;;18.42;58.40625;101757.1;;;;-69
2023/05/01 16:55:34;;;;;;;;;;;;;;;18.3;58.43555;101766.6;;;;-70
2023/05/01 16:58:11;;;;;;;21.3;12.5;;;;;;;;;;;;;-70
2023/05/01 17:00:31;;;;;;;;;;;;;;;18.19;58.4541;101764;;;;-72
2023/05/01 17:05:31;;;;;;;;;;;;;;;18.03;58.5918;101761.5;;;;-69
2023/05/01 17:10:31;;;;;;;;;;;;;;;17.9;58.64355;101766.1;;;;-69
2023/05/01 17:15:31;;;;;;;;;;;;;;;17.78;59.02344;101766.9;;;;-69
2023/05/01 17:20:31;;;;;;;;;;;;;;;17.67;59.06641;101772.7;;;;-70
2023/05/01 17:25:34;;;;;;;;;;;;;;;17.54;59.46582;101773.4;;;;-68
2023/05/01 17:28:13;;;;;;;20.5;12.6;;;;;;;;;;;;;-70
2023/05/01 17:30:31;;;;;;;;;;;;;;;17.42;59.79004;101779.7;;;;-68
2023/05/01 17:35:32;;;;;;;;;;;;;;;17.25;59.94727;101789.1;;;;-74
2023/05/01 17:40:31;;;;;;;;;;;;;;;17.12;60.07715;101794.8;;;;-76
2023/05/01 17:45:34;;;;;;;;;;;;;;;16.94;60.37988;101801.8;;;;-73
2023/05/01 17:50:31;;;;;;;;;;;;;;;16.76;60.40039;101802;;;;-74
2023/05/01 17:55:34;;;;;;;;;;;;;;;16.6;60.75098;101809.3;;;;-74
2023/05/01 17:58:16;;;;;;;21.9;12.4;;;;;;;;;;;;;-74
2023/05/01 18:00:32;;;;;;;;;;;;;;;16.41;60.92773;101807.6;;;;-74
2023/05/01 18:05:31;;;;;;;;;;;;;;;16.23;61.24219;101826.4;;;;-73
2023/05/01 18:10:31;;;;;;;;;;;;;;;16.03;61.63184;101828.5;;;;-74
2023/05/01 18:15:31;;;;;;;;;;;;;;;15.87;61.78809;101822.5;;;;-74
2023/05/01 18:20:42;;;;;;;;;;;;;;;15.72;62.49805;101833.1;;;;-73
2023/05/01 18:25:31;;;;;;;;;;;;;;;15.56;61.94727;101835.7;;;;-73
2023/05/01 18:28:20;;;;;;;22.9;12.6;;;;;;;;;;;;;-73
2023/05/01 18:30:31;;;;;;;;;;;;;;;15.42;62.29785;101847.2;;;;-76
2023/05/01 18:35:32;;;;;;;;;;;;;;;15.26;62.42285;101854.2;;;;-74
2023/05/01 18:40:32;;;;;;;;;;;;;;;15.15;61.59863;101853.7;;;;-74
2023/05/01 18:45:31;;;;;;;;;;;;;;;14.97;62.76367;101861.5;;;;-75
2023/05/01 18:50:31;;;;;;;;;;;;;;;14.83;62.90039;101869.6;;;;-73
2023/05/01 18:55:31;;;;;;;;;;;;;;;14.69;62.11719;101879.2;;;;-73
2023/05/01 18:58:21;;;;;;;23.8;12.4;;;;;;;;;;;;;-74
2023/05/01 19:00:31;;;;;;;;;;;;;;;14.53;62.91504;101884.7;;;;-76
2023/05/01 19:05:31;;;;;;;;;;;;;;;14.41;62.51465;101882;;;;-73
2023/05/01 19:10:32;;;;;;;;;;;;;;;14.3;62.67871;101876.8;;;;-74
2023/05/01 19:15:31;;;;;;;;;;;;;;;14.14;62.92578;101879.9;;;;-69
2023/05/01 19:20:31;;;;;;;;;;;;;;;14;62.75977;101891;;;;-71
2023/05/01 19:25:32;;;;;;;;;;;;;;;13.88;62.60938;101904;;;;-69
2023/05/01 19:28:23;;;;;;;20.8;11;;;;;;;;;;;;;-69
2023/05/01 19:30:31;;;;;;;;;;;;;;;13.77;63.50098;101907.5;;;;-71
2023/05/01 19:35:31;;;;;;;;;;;;;;;13.67;63.30762;101916.2;;;;-69
2023/05/01 19:40:32;;;;;;;;;;;;;;;13.59;63.76465;101917.8;;;;-69
2023/05/01 19:45:31;;;;;;;;;;;;;;;13.51;63.49707;101917.8;;;;-69
2023/05/01 19:50:32;;;;;;;;;;;;;;;13.43;63.8418;101925.3;;;;-71
2023/05/01 19:55:31;;;;;;;;;;;;;;;13.39;63.5459;101934.3;;;;-69
2023/05/01 19:58:25;;;;;;;21.3;10.8;;;;;;;;;;;;;-68
2023/05/01 20:00:31;;;;;;;;;;;;;;;13.29;63.99219;101942.7;;;;-71
2023/05/01 20:05:31;;;;;;;;;;;;;;;13.24;64.12891;101945.9;;;;-69
2023/05/01 20:10:31;;;;;;;;;;;;;;;13.16;64.9668;101944.8;;;;-70
2023/05/01 20:15:31;;;;;;;;;;;;;;;13.09;64.18652;101952.6;;;;-71
2023/05/01 20:20:32;;;;;;;;;;;;;;;13.01;64.44336;101957.6;;;;-69
2023/05/01 20:25:33;;;;;;;;;;;;;;;12.97;64.24609;101967.6;;;;-70
2023/05/01 20:28:28;;;;;;;19.9;8.9;;;;;;;;;;;;;-70
2023/05/01 20:30:31;;;;;;;;;;;;;;;12.88;64.5127;101968.5;;;;-71
2023/05/01 20:35:32;;;;;;;;;;;;;;;12.8;64.56738;101961;;;;-69
2023/05/01 20:40:31;;;;;;;;;;;;;;;12.73;64.45605;101955.3;;;;-70
2023/05/01 20:45:31;;;;;;;;;;;;;;;12.65;64.71289;101960;;;;-71
2023/05/01 20:50:34;;;;;;;;;;;;;;;12.58;64.48926;101964;;;;-68
2023/05/01 20:55:31;;;;;;;;;;;;;;;12.5;65.36133;101976.3;;;;-70
2023/05/01 20:58:32;;;;;;;15.8;8;;;;;;;;;;;;;-70
2023/05/01 21:00:31;;;;;;;;;;;;;;;12.43;64.78027;101977.9;;;;-70
2023/05/01 21:05:33;;;;;;;;;;;;;;;12.39;64.86426;101973.7;;;;-70
2023/05/01 21:10:31;;;;;;;;;;;;;;;12.3;65.30859;101982.7;;;;-69
2023/05/01 21:15:32;;;;;;;;;;;;;;;12.21;65.12793;101971.6;;;;-70
2023/05/01 21:20:32;;;;;;;;;;;;;;;12.12;65.07129;101984.4;;;;-70
2023/05/01 21:25:31;;;;;;;;;;;;;;;12.04;65.9834;101987.6;;;;-69
2023/05/01 21:28:33;;;;;;;11.5;6.5;;;;;;;;;;;;;-69
2023/05/01 21:30:33;;;;;;;;;;;;;;;11.97;65.83984;101991.3;;;;-73
2023/05/01 21:35:32;;;;;;;;;;;;;;;11.92;66.11133;101997.5;;;;-69
2023/05/01 21:40:31;;;;;;;;;;;;;;;11.89;66.37305;102007.8;;;;-70
2023/05/01 21:45:33;;;;;;;;;;;;;;;11.82;66.56445;102015.2;;;;-69
2023/05/01 21:50:32;;;;;;;;;;;;;;;11.81;66.4043;102016.4;;;;-69
2023/05/01 21:55:32;;;;;;;;;;;;;;;11.76;66.4541;102021.9;;;;-69
2023/05/01 21:58:36;;;;;;;12.5;6.9;;;;;;;;;;;;;-69
2023/05/01 22:00:31;;;;;;;;;;;;;;;11.74;66.61719;102026.2;;;;-73
2023/05/01 22:05:33;;;;;;;;;;;;;;;11.71;66.91211;102029.4;;;;-70
2023/05/01 22:10:31;;;;;;;;;;;;;;;11.68;67.24414;102031.2;;;;-69
2023/05/01 22:15:31;;;;;;;;;;;;;;;11.67;67.4541;102037.4;;;;-69
2023/05/01 22:20:31;;;;;;;;;;;;;;;11.64;67.6377;102042.4;;;;-67
2023/05/01 22:25:31;;;;;;;;;;;;;;;11.61;68.08984;102041.4;;;;-68
2023/05/01 22:28:34;;;;;;;15;7.3;;;;;;;;;;;;;-69
2023/05/01 22:30:31;;;;;;;;;;;;;;;11.6;68.15527;102052.9;;;;-72
2023/05/01 22:35:32;;;;;;;;;;;;;;;11.57;68.25098;102059.3;;;;-70
2023/05/01 22:40:31;;;;;;;;;;;;;;;11.55;68.68262;102064.9;;;;-69
2023/05/01 22:45:32;;;;;;;;;;;;;;;11.53;68.80176;102083.3;;;;-67
2023/05/01 22:50:34;;;;;;;;;;;;;;;11.51;69.12012;102090.5;;;;-70
2023/05/01 22:55:33;;;;;;;;;;;;;;;11.51;69.82129;102093.4;;;;-68
2023/05/01 22:58:37;;;;;;;14.4;5.8;;;;;;;;;;;;;-71
2023/05/01 23:00:31;;;;;;;;;;;;;;;11.51;69.50977;102096.7;;;;-74
2023/05/01 23:05:31;;;;;;;;;;;;;;;11.48;69.68359;102103.8;;;;-69
2023/05/01 23:10:31;;;;;;;;;;;;;;;11.47;69.81543;102108.3;;;;-70
2023/05/01 23:15:31;;;;;;;;;;;;;;;11.48;70.16211;102116.5;;;;-70
2023/05/01 23:20:31;;;;;;;;;;;;;;;11.47;69.74902;102120.2;;;;-69
2023/05/01 23:25:31;;;;;;;;;;;;;;;11.46;69.93652;102127.7;;;;-70
2023/05/01 23:28:42;;;;;;;7.6;3.6;;;;;;;;;;;;;-68
2023/05/01 23:30:31;;;;;;;;;;;;;;;11.47;69.7373;102131.7;;;;-72
2023/05/01 23:35:31;;;;;;;;;;;;;;;11.46;70.02539;102132.6;;;;-68
2023/05/01 23:40:31;;;;;;;;;;;;;;;11.44;71.02148;102129.7;;;;-70
2023/05/01 23:45:31;;;;;;;;;;;;;;;11.44;70.76758;102128.1;;;;-69
2023/05/01 23:50:31;;;;;;;;;;;;;;;11.44;70.12109;102123.5;;;;-72
2023/05/01 23:55:31;;;;;;;;;;;;;;;11.42;70.3623;102120.5;;;;-70
2023/05/01 23:58:42;;;;;;;9.5;2.5;;;;;;;;;;;;;-70
